Time;durP1;ratioP1;P1;durP2;ratioP2;P2;SDS_P1;SDS_P2;PMS_P1;PMS_P2;Temp;Humidity;BMP_temperature;BMP_pressure;BME280_temperature;BME280_humidity;BME280_pressure;Samples;Min_cycle;Max_cycle;Signal;HPM_P1;HPM_P2
2021/11/05 00:00:28;;;;;;;4.72;3.50;;;6.80;94.50;;;;;;2073656;28;20057;-90
2021/11/05 00:01:28;;;;;;;4.53;3.20;;;6.80;94.50;;;;;;2079987;28;20111;-90
2021/11/05 00:02:29;;;;;;;4.72;3.00;;;6.80;94.50;;;;;;2074809;28;20038;-90
2021/11/05 00:03:30;;;;;;;5.32;3.60;;;6.80;94.50;;;;;;2073348;28;20034;-91
2021/11/05 00:04:30;;;;;;;4.43;3.10;;;6.80;94.50;;;;;;2057015;28;20035;-91
2021/11/05 00:05:32;;;;;;;4.47;3.05;;;6.80;94.50;;;;;;2071716;28;20065;-91
2021/11/05 00:06:33;;;;;;;4.80;3.50;;;6.80;94.50;;;;;;2057145;28;20035;-90
2021/11/05 00:07:33;;;;;;;4.90;3.38;;;6.80;94.50;;;;;;2063733;28;20043;-91
2021/11/05 00:08:34;;;;;;;4.90;3.10;;;6.80;94.50;;;;;;2075309;28;20056;-91
2021/11/05 00:09:35;;;;;;;5.15;3.30;;;6.80;94.50;;;;;;2065536;28;20378;-91
2021/11/05 00:10:40;;;;;;;4.50;3.20;;;6.80;94.50;;;;;;2068475;28;20112;-89
2021/11/05 00:11:41;;;;;;;4.80;3.13;;;6.80;94.50;;;;;;2068315;28;20034;-92
2021/11/05 00:12:43;;;;;;;5.63;3.28;;;6.80;94.50;;;;;;2073246;28;20599;-91
2021/11/05 00:13:43;;;;;;;3.97;3.00;;;6.80;94.50;;;;;;2065110;28;20034;-90
2021/11/05 00:14:44;;;;;;;4.68;2.78;;;6.80;94.50;;;;;;2057022;28;20124;-91
2021/11/05 00:15:45;;;;;;;5.10;2.88;;;6.80;94.50;;;;;;2045974;28;20047;-91
2021/11/05 00:16:45;;;;;;;6.68;3.35;;;6.80;94.50;;;;;;2041198;28;20406;-89
2021/11/05 00:17:46;;;;;;;4.72;3.00;;;6.80;94.50;;;;;;2041219;29;20423;-90
2021/11/05 00:18:47;;;;;;;5.97;3.30;;;6.80;94.50;;;;;;2049153;28;20196;-92
2021/11/05 00:19:48;;;;;;;3.97;2.60;;;6.80;94.50;;;;;;2066200;28;20034;-91
2021/11/05 00:20:49;;;;;;;5.63;3.05;;;6.80;94.50;;;;;;2077164;28;20076;-91
2021/11/05 00:21:49;;;;;;;4.75;3.00;;;6.80;94.50;;;;;;2075868;28;20073;-91
2021/11/05 00:22:51;;;;;;;3.78;2.67;;;6.80;94.50;;;;;;2076094;28;20042;-92
2021/11/05 00:23:51;;;;;;;4.40;2.78;;;6.80;94.50;;;;;;2085098;28;20056;-91
2021/11/05 00:24:52;;;;;;;4.28;2.90;;;6.80;94.50;;;;;;2082449;28;20026;-90
2021/11/05 00:25:53;;;;;;;4.07;2.85;;;6.80;94.50;;;;;;2079930;28;20014;-90
2021/11/05 00:26:53;;;;;;;4.13;2.70;;;6.80;94.50;;;;;;2090364;28;20028;-90
2021/11/05 00:27:54;;;;;;;4.40;2.63;;;6.80;94.50;;;;;;2093210;28;20021;-84
2021/11/05 00:28:54;;;;;;;4.18;2.75;;;6.80;94.50;;;;;;2089970;28;20065;-88
2021/11/05 00:29:55;;;;;;;3.83;2.40;;;6.80;94.50;;;;;;2085302;28;20018;-83
2021/11/05 00:30:56;;;;;;;4.65;2.83;;;6.80;94.50;;;;;;2085037;28;20097;-88
2021/11/05 00:31:57;;;;;;;4.28;2.65;;;6.80;94.50;;;;;;2080360;28;20030;-90
2021/11/05 00:32:58;;;;;;;4.22;2.78;;;6.80;94.50;;;;;;2080434;28;20128;-90
2021/11/05 00:33:58;;;;;;;4.55;2.97;;;6.80;94.50;;;;;;2064749;28;20059;-91
2021/11/05 00:34:59;;;;;;;4.72;3.08;;;6.80;94.50;;;;;;2063927;28;20122;-90
2021/11/05 00:36:01;;;;;;;3.72;2.58;;;6.80;94.50;;;;;;2087928;28;20033;-91
2021/11/05 00:37:02;;;;;;;3.72;2.45;;;6.80;94.50;;;;;;2076765;28;20037;-91
2021/11/05 00:38:04;;;;;;;4.07;2.60;;;6.80;94.50;;;;;;2069193;28;20038;-90
2021/11/05 00:39:05;;;;;;;4.15;2.88;;;6.80;94.50;;;;;;2074954;28;20033;-90
2021/11/05 00:40:07;;;;;;;4.25;2.60;;;6.80;94.50;;;;;;2076882;28;20108;-90
2021/11/05 00:41:08;;;;;;;4.63;2.67;;;6.80;94.50;;;;;;2075290;28;20030;-90
2021/11/05 00:42:09;;;;;;;3.63;2.38;;;6.80;94.50;;;;;;2082974;28;20056;-90
2021/11/05 00:43:09;;;;;;;4.57;2.67;;;6.80;94.50;;;;;;2077109;28;20034;-90
2021/11/05 00:44:10;;;;;;;4.38;2.47;;;6.80;94.50;;;;;;2067995;28;20065;-90
2021/11/05 00:45:11;;;;;;;4.53;2.40;;;6.80;94.50;;;;;;2059234;28;20050;-90
2021/11/05 00:46:12;;;;;;;5.28;2.60;;;6.80;94.50;;;;;;2061113;28;20042;-90
2021/11/05 00:47:15;;;;;;;4.25;2.60;;;6.80;94.50;;;;;;2063378;28;20099;-90
2021/11/05 00:48:15;;;;;;;4.20;2.50;;;6.80;94.50;;;;;;2071086;28;20038;-90
2021/11/05 00:49:16;;;;;;;4.88;2.40;;;6.90;94.50;;;;;;2071489;28;20034;-90
2021/11/05 00:50:17;;;;;;;3.60;2.30;;;6.80;94.50;;;;;;2071942;28;20061;-90
2021/11/05 00:51:17;;;;;;;4.30;2.38;;;6.90;94.50;;;;;;2076443;28;20443;-91
2021/11/05 00:52:18;;;;;;;4.22;2.20;;;6.80;94.50;;;;;;2075393;28;20084;-90
2021/11/05 00:53:19;;;;;;;3.60;2.13;;;6.90;94.50;;;;;;2080647;28;20044;-90
2021/11/05 00:54:19;;;;;;;3.60;2.08;;;6.80;94.50;;;;;;2081195;28;20042;-91
2021/11/05 00:55:20;;;;;;;2.97;2.13;;;6.90;94.50;;;;;;2062449;28;20037;-91
2021/11/05 00:56:21;;;;;;;3.60;2.17;;;6.80;94.50;;;;;;2058158;28;20494;-91
2021/11/05 00:57:22;;;;;;;4.72;2.47;;;6.90;94.50;;;;;;2074647;28;20131;-90
2021/11/05 00:58:22;;;;;;;3.70;2.35;;;6.90;94.50;;;;;;2074962;28;20112;-90
2021/11/05 00:59:23;;;;;;;3.75;2.20;;;6.90;94.50;;;;;;2074963;28;20065;-91
2021/11/05 01:00:24;;;;;;;3.70;2.47;;;6.80;94.50;;;;;;2058637;28;20142;-90
2021/11/05 01:01:24;;;;;;;3.13;2.05;;;6.90;94.50;;;;;;2051077;28;20086;-91
2021/11/05 01:02:25;;;;;;;3.75;2.15;;;6.80;94.50;;;;;;2066093;28;20035;-91
2021/11/05 01:03:26;;;;;;;3.55;2.05;;;6.80;94.50;;;;;;2055614;28;20035;-91
2021/11/05 01:04:26;;;;;;;4.85;2.40;;;6.80;94.50;;;;;;2058445;28;20038;-91
2021/11/05 01:05:27;;;;;;;3.20;2.20;;;6.80;94.50;;;;;;2066531;28;20603;-90
2021/11/05 01:06:28;;;;;;;4.57;2.47;;;6.80;94.50;;;;;;2080526;28;20038;-90
2021/11/05 01:07:29;;;;;;;4.07;2.53;;;6.80;94.50;;;;;;2075581;28;20061;-89
2021/11/05 01:08:30;;;;;;;3.90;2.33;;;6.80;94.50;;;;;;2078654;28;20033;-90
2021/11/05 01:09:31;;;;;;;3.10;1.92;;;6.80;94.50;;;;;;2083319;28;20535;-90
2021/11/05 01:10:35;;;;;;;3.33;2.28;;;6.80;94.80;;;;;;2083976;28;20082;-90
2021/11/05 01:11:36;;;;;;;3.20;2.08;;;6.80;94.50;;;;;;2084957;28;20021;-81
2021/11/05 01:12:36;;;;;;;4.18;2.20;;;6.80;94.50;;;;;;2084099;28;20099;-91
2021/11/05 01:13:37;;;;;;;3.88;2.28;;;6.80;94.50;;;;;;2079677;28;20034;-90
2021/11/05 01:14:38;;;;;;;3.70;2.30;;;6.80;94.50;;;;;;2074775;28;20034;-91
2021/11/05 01:15:38;;;;;;;4.82;2.53;;;6.80;94.60;;;;;;2074801;28;20038;-90
2021/11/05 01:16:39;;;;;;;3.75;2.40;;;6.80;94.60;;;;;;2074365;28;20220;-91
2021/11/05 01:17:42;;;;;;;3.88;2.40;;;6.80;94.60;;;;;;2058645;28;20114;-91
2021/11/05 01:18:42;;;;;;;4.22;2.55;;;6.80;94.60;;;;;;2067197;28;20480;-90
2021/11/05 01:19:44;;;;;;;4.68;2.50;;;6.80;94.60;;;;;;2074652;28;20030;-91
2021/11/05 01:20:44;;;;;;;4.57;2.72;;;6.80;94.80;;;;;;2071654;28;20035;-90
2021/11/05 01:21:45;;;;;;;4.00;2.70;;;6.80;94.60;;;;;;2082630;28;20435;-91
2021/11/05 01:22:47;;;;;;;3.88;2.40;;;6.80;94.60;;;;;;2080364;28;20565;-90
2021/11/05 01:23:47;;;;;;;4.10;2.42;;;6.80;94.80;;;;;;2074640;28;20416;-91
2021/11/05 01:24:49;;;;;;;3.65;2.47;;;6.70;94.60;;;;;;2074324;28;20069;-91
2021/11/05 01:25:50;;;;;;;3.50;2.47;;;6.80;94.60;;;;;;2065982;28;20030;-91
2021/11/05 01:26:52;;;;;;;4.47;2.75;;;6.80;94.60;;;;;;2066336;28;20567;-91
2021/11/05 01:27:53;;;;;;;3.83;2.42;;;6.80;94.60;;;;;;2062571;28;20035;-91
2021/11/05 01:28:54;;;;;;;4.13;2.63;;;6.80;94.60;;;;;;2058189;28;20042;-91
2021/11/05 01:29:58;;;;;;;4.80;2.60;;;6.80;94.60;;;;;;2066224;28;20042;-90
2021/11/05 01:30:59;;;;;;;4.60;3.00;;;6.80;94.60;;;;;;2066512;28;20034;-90
2021/11/05 01:32:00;;;;;;;4.50;2.65;;;6.80;94.60;;;;;;2073034;28;20042;-89
2021/11/05 01:33:06;;;;;;;4.97;2.70;;;6.70;94.60;;;;;;2072136;28;20046;-89
2021/11/05 01:34:08;;;;;;;3.85;2.50;;;6.70;94.60;;;;;;2080851;28;20120;-91
2021/11/05 01:35:10;;;;;;;4.28;2.78;;;6.70;94.60;;;;;;2076050;28;20026;-90
2021/11/05 01:36:13;;;;;;;4.47;2.33;;;6.70;94.60;;;;;;2074045;28;20508;-91
2021/11/05 01:37:13;;;;;;;3.67;2.58;;;6.70;94.60;;;;;;2071122;28;20030;-92
2021/11/05 01:38:14;;;;;;;4.13;2.80;;;6.70;94.60;;;;;;2065730;28;20041;-91
2021/11/05 01:39:16;;;;;;;4.80;2.35;;;6.70;94.60;;;;;;2060324;28;20131;-92
2021/11/05 01:40:17;;;;;;;4.82;2.80;;;6.70;94.60;;;;;;2069861;28;20055;-90
2021/11/05 01:41:17;;;;;;;4.60;2.60;;;6.70;94.60;;;;;;2073662;28;20107;-90
2021/11/05 01:42:18;;;;;;;4.43;2.88;;;6.70;94.60;;;;;;2057941;28;22398;-91
2021/11/05 01:43:20;;;;;;;4.50;2.92;;;6.70;94.60;;;;;;2058112;28;20045;-91
2021/11/05 01:44:25;;;;;;;5.13;2.75;;;6.70;94.70;;;;;;2057060;28;20046;-90
2021/11/05 01:45:25;;;;;;;4.88;2.65;;;6.70;94.60;;;;;;2059119;28;20038;-90
2021/11/05 01:46:26;;;;;;;5.40;2.72;;;6.70;94.60;;;;;;2068728;28;20561;-90
2021/11/05 01:47:27;;;;;;;4.15;2.53;;;6.70;94.60;;;;;;2065837;28;20428;-90
2021/11/05 01:48:27;;;;;;;5.22;2.78;;;6.70;94.60;;;;;;2060713;28;20049;-90
2021/11/05 01:49:28;;;;;;;3.85;2.60;;;6.70;94.60;;;;;;2066143;28;20089;-90
2021/11/05 01:50:30;;;;;;;4.30;2.35;;;6.70;94.70;;;;;;2067706;28;20039;-89
2021/11/05 01:51:30;;;;;;;4.82;2.85;;;6.70;94.70;;;;;;2065773;28;20030;-90
2021/11/05 01:52:31;;;;;;;5.32;2.60;;;6.70;94.70;;;;;;2071708;28;20512;-90
2021/11/05 01:53:32;;;;;;;4.03;2.50;;;6.70;94.70;;;;;;2063836;28;20042;-90
2021/11/05 01:54:33;;;;;;;3.75;2.28;;;6.70;94.70;;;;;;2073720;28;20038;-90
2021/11/05 01:55:34;;;;;;;4.53;2.70;;;6.70;94.70;;;;;;2067983;28;20078;-90
2021/11/05 01:56:39;;;;;;;4.03;2.28;;;6.70;95.00;;;;;;2072600;28;20038;-90
2021/11/05 01:57:42;;;;;;;4.97;2.55;;;6.70;94.70;;;;;;2073558;28;20038;-90
2021/11/05 01:58:42;;;;;;;4.78;2.75;;;6.70;94.70;;;;;;2082266;28;20423;-89
2021/11/05 01:59:52;;;;;;;4.07;2.20;;;6.70;94.70;;;;;;2065828;28;20049;-91
2021/11/05 02:00:53;;;;;;;3.95;2.40;;;6.70;94.70;;;;;;2066352;28;20038;-90
2021/11/05 02:01:55;;;;;;;3.70;2.28;;;6.70;94.70;;;;;;2057159;28;20042;-91
2021/11/05 02:02:56;;;;;;;3.35;2.30;;;6.70;94.70;;;;;;2072240;28;20041;-91
2021/11/05 02:03:57;;;;;;;3.10;2.08;;;6.70;94.70;;;;;;2082438;28;20072;-90
2021/11/05 02:04:58;;;;;;;4.65;2.53;;;6.70;94.70;;;;;;2086905;28;20037;-90
2021/11/05 02:06:01;;;;;;;3.97;2.45;;;6.70;94.70;;;;;;2083410;28;20089;-90
2021/11/05 02:07:02;;;;;;;4.15;2.45;;;6.70;94.70;;;;;;2078745;28;20057;-91
2021/11/05 02:08:05;;;;;;;3.85;2.60;;;6.70;94.70;;;;;;2078429;28;20038;-91
2021/11/05 02:09:06;;;;;;;3.67;2.30;;;6.70;94.70;;;;;;2075894;28;20041;-92
2021/11/05 02:10:08;;;;;;;3.70;2.30;;;6.70;94.70;;;;;;2082100;28;20072;-91
2021/11/05 02:11:09;;;;;;;5.07;2.38;;;6.70;94.80;;;;;;2086626;28;20022;-84
2021/11/05 02:12:11;;;;;;;3.67;2.10;;;6.70;94.80;;;;;;2084598;28;20034;-86
2021/11/05 02:13:13;;;;;;;4.88;2.00;;;6.70;94.80;;;;;;2073644;28;20030;-90
2021/11/05 02:14:18;;;;;;;3.67;2.10;;;6.70;94.80;;;;;;2074578;28;20070;-89
2021/11/05 02:15:20;;;;;;;4.43;2.42;;;6.70;94.80;;;;;;2088084;28;20041;-90
2021/11/05 02:16:22;;;;;;;3.47;1.98;;;6.70;94.80;;;;;;2075169;28;20125;-91
2021/11/05 02:17:23;;;;;;;3.90;2.13;;;6.70;94.80;;;;;;2082527;28;20128;-86
2021/11/05 02:18:24;;;;;;;3.97;2.20;;;6.70;94.80;;;;;;2075061;28;20400;-92
2021/11/05 02:19:28;;;;;;;3.70;2.10;;;6.70;94.80;;;;;;2074413;28;20129;-91
2021/11/05 02:20:29;;;;;;;2.95;2.00;;;6.70;94.80;;;;;;2073671;28;20056;-90
2021/11/05 02:21:38;;;;;;;3.30;1.77;;;6.70;94.80;;;;;;2073872;28;20048;-90
2021/11/05 02:22:39;;;;;;;2.83;1.88;;;6.70;94.80;;;;;;2073862;28;20046;-91
2021/11/05 02:23:40;;;;;;;4.15;2.05;;;6.70;94.80;;;;;;2079575;28;20045;-91
2021/11/05 02:24:41;;;;;;;3.50;1.98;;;6.70;95.10;;;;;;2082251;28;20065;-91
2021/11/05 02:25:44;;;;;;;3.35;1.60;;;6.70;94.80;;;;;;2082413;28;20404;-91
2021/11/05 02:26:46;;;;;;;2.70;1.60;;;6.70;94.80;;;;;;2083848;28;20041;-92
2021/11/05 02:27:49;;;;;;;3.55;1.90;;;6.70;94.80;;;;;;2073732;28;20045;-90
2021/11/05 02:28:50;;;;;;;3.63;1.90;;;6.70;94.80;;;;;;2073102;28;20044;-90
2021/11/05 02:29:50;;;;;;;4.20;1.90;;;6.70;94.80;;;;;;2069792;28;20144;-90
2021/11/05 02:30:51;;;;;;;2.65;1.70;;;6.70;94.80;;;;;;2056988;28;20513;-90
2021/11/05 02:31:52;;;;;;;4.05;1.90;;;6.70;94.80;;;;;;2065322;28;20070;-90
2021/11/05 02:32:53;;;;;;;2.95;1.55;;;6.70;94.80;;;;;;2058935;28;20057;-89
2021/11/05 02:33:53;;;;;;;3.42;1.85;;;6.70;94.80;;;;;;2079057;28;20508;-91
2021/11/05 02:34:55;;;;;;;3.75;1.70;;;6.70;94.80;;;;;;2071228;28;20121;-89
2021/11/05 02:35:55;;;;;;;2.35;1.60;;;6.70;94.80;;;;;;2073556;28;20042;-90
2021/11/05 02:36:56;;;;;;;4.07;1.90;;;6.70;94.80;;;;;;2082474;28;20084;-91
2021/11/05 02:37:57;;;;;;;3.75;1.80;;;6.70;94.80;;;;;;2082430;28;20132;-91
2021/11/05 02:38:58;;;;;;;3.30;1.90;;;6.70;94.80;;;;;;2073507;28;20042;-91
2021/11/05 02:39:59;;;;;;;3.10;1.60;;;6.70;94.80;;;;;;2065724;28;20522;-90
2021/11/05 02:40:59;;;;;;;2.85;1.60;;;6.70;94.80;;;;;;2082935;28;20045;-90
2021/11/05 02:42:01;;;;;;;2.20;1.63;;;6.70;94.80;;;;;;2083240;28;20033;-90
2021/11/05 02:43:02;;;;;;;2.25;1.60;;;6.70;94.80;;;;;;2081868;28;20029;-90
2021/11/05 02:44:04;;;;;;;3.53;1.55;;;6.70;94.90;;;;;;2080273;28;20045;-90
2021/11/05 02:45:06;;;;;;;3.33;1.70;;;6.70;94.90;;;;;;2092587;28;20017;-91
2021/11/05 02:46:07;;;;;;;3.25;1.88;;;6.70;94.90;;;;;;2082010;28;20038;-91
2021/11/05 02:47:26;;;;;;;4.50;1.63;;;6.70;94.90;;;;;;2082365;28;20030;-92
2021/11/05 02:48:27;;;;;;;3.13;1.85;;;6.70;94.90;;;;;;2080371;28;20492;-91
2021/11/05 02:49:28;;;;;;;3.75;1.50;;;6.70;94.90;;;;;;2073782;28;20575;-91
2021/11/05 02:50:28;;;;;;;3.00;1.63;;;6.70;94.80;;;;;;2081380;28;20122;-91
2021/11/05 02:51:30;;;;;;;2.78;1.50;;;6.70;95.10;;;;;;2081996;28;20036;-91
2021/11/05 02:52:31;;;;;;;4.70;1.60;;;6.70;94.90;;;;;;2073305;28;20034;-90
2021/11/05 02:53:32;;;;;;;3.35;1.70;;;6.70;94.90;;;;;;2063214;28;20501;-90
2021/11/05 02:54:32;;;;;;;2.78;1.50;;;6.70;94.90;;;;;;2072831;28;20042;-91
2021/11/05 02:55:33;;;;;;;4.43;1.70;;;6.70;94.90;;;;;;2085347;28;20061;-90
2021/11/05 02:56:34;;;;;;;4.03;1.92;;;6.70;94.90;;;;;;2058048;28;20039;-89
2021/11/05 02:57:35;;;;;;;2.78;1.67;;;6.70;94.90;;;;;;2050164;28;20410;-91
2021/11/05 02:58:36;;;;;;;3.45;1.63;;;6.70;94.90;;;;;;2056337;28;20066;-90
2021/11/05 02:59:37;;;;;;;2.80;1.65;;;6.70;94.90;;;;;;2058453;28;20162;-91
2021/11/05 03:00:39;;;;;;;2.47;1.30;;;6.70;94.90;;;;;;2062426;28;20042;-90
2021/11/05 03:01:39;;;;;;;3.13;1.60;;;6.70;94.90;;;;;;2068201;28;20096;-90
2021/11/05 03:02:40;;;;;;;4.60;1.70;;;6.70;94.90;;;;;;2064697;28;20129;-91
2021/11/05 03:03:41;;;;;;;3.42;1.20;;;6.70;94.90;;;;;;2052169;28;20134;-91
2021/11/05 03:04:42;;;;;;;2.55;1.40;;;6.70;95.20;;;;;;2073058;28;20180;-91
2021/11/05 03:05:43;;;;;;;1.80;1.33;;;6.70;94.90;;;;;;2082568;28;20042;-91
2021/11/05 03:06:44;;;;;;;4.60;1.77;;;6.70;94.90;;;;;;2065419;28;20065;-92
2021/11/05 03:07:45;;;;;;;2.30;1.10;;;6.70;94.90;;;;;;2065142;28;20077;-91
2021/11/05 03:08:45;;;;;;;2.13;1.35;;;6.70;94.90;;;;;;2071980;28;20097;-91
2021/11/05 03:09:46;;;;;;;2.40;1.20;;;6.70;94.90;;;;;;2080964;28;20049;-90
2021/11/05 03:10:47;;;;;;;2.65;1.40;;;6.70;94.90;;;;;;2081777;28;20068;-92
2021/11/05 03:11:48;;;;;;;2.40;1.33;;;6.70;95.20;;;;;;2067257;28;20053;-92
2021/11/05 03:12:49;;;;;;;2.45;1.58;;;6.70;94.90;;;;;;2064808;28;20042;-90
2021/11/05 03:13:49;;;;;;;1.95;1.10;;;6.70;94.90;;;;;;2068412;28;20045;-91
2021/11/05 03:14:50;;;;;;;1.92;1.13;;;6.70;94.90;;;;;;2064998;28;20039;-90
2021/11/05 03:15:51;;;;;;;1.65;1.17;;;6.70;94.90;;;;;;2073596;28;20133;-91
2021/11/05 03:16:52;;;;;;;2.00;1.33;;;6.70;94.90;;;;;;2073280;28;20025;-91
2021/11/05 03:17:54;;;;;;;2.55;1.13;;;6.70;94.90;;;;;;2073725;28;20034;-90
2021/11/05 03:18:55;;;;;;;3.25;1.30;;;6.70;94.90;;;;;;2073284;28;20046;-91
2021/11/05 03:19:55;;;;;;;2.95;1.30;;;6.70;94.90;;;;;;2073287;28;20038;-90
2021/11/05 03:20:56;;;;;;;3.28;1.20;;;6.70;94.90;;;;;;2073236;28;20081;-90
2021/11/05 03:21:58;;;;;;;1.95;1.10;;;6.70;94.90;;;;;;2082796;28;20588;-91
2021/11/05 03:22:59;;;;;;;2.45;1.10;;;6.70;94.90;;;;;;2082160;28;20446;-91
2021/11/05 03:24:00;;;;;;;3.70;1.15;;;6.70;94.90;;;;;;2087430;28;20041;-91
2021/11/05 03:25:01;;;;;;;2.38;1.30;;;6.70;94.90;;;;;;2090103;28;20079;-91
2021/11/05 03:26:02;;;;;;;1.83;1.02;;;6.70;94.90;;;;;;2091412;28;20090;-91
2021/11/05 03:27:03;;;;;;;2.28;1.17;;;6.70;94.90;;;;;;2078682;28;20033;-91
2021/11/05 03:28:04;;;;;;;2.47;1.10;;;6.70;94.90;;;;;;2079547;28;20026;-84
2021/11/05 03:29:04;;;;;;;1.85;1.00;;;6.70;94.90;;;;;;2083692;28;20044;-89
2021/11/05 03:30:08;;;;;;;2.20;0.93;;;6.70;94.90;;;;;;2077613;28;20181;-89
2021/11/05 03:31:08;;;;;;;2.92;1.10;;;6.70;94.90;;;;;;2073379;28;20022;-89
2021/11/05 03:32:09;;;;;;;1.80;1.10;;;6.70;94.90;;;;;;2072100;28;20174;-91
2021/11/05 03:33:10;;;;;;;3.00;1.20;;;6.70;94.90;;;;;;2074014;28;20428;-90
2021/11/05 03:34:11;;;;;;;1.83;1.00;;;6.70;94.90;;;;;;2076934;28;20045;-89
2021/11/05 03:35:14;;;;;;;1.27;0.80;;;6.70;95.20;;;;;;2073571;28;20088;-90
2021/11/05 03:36:14;;;;;;;1.35;0.90;;;6.80;95.00;;;;;;2065551;28;20130;-92
2021/11/05 03:37:17;;;;;;;1.00;0.80;;;6.70;94.90;;;;;;2065113;28;20030;-92
2021/11/05 03:38:17;;;;;;;2.88;1.20;;;6.80;95.00;;;;;;2073772;28;20042;-92
2021/11/05 03:39:18;;;;;;;2.03;0.95;;;6.80;95.00;;;;;;2079267;28;20029;-90
2021/11/05 03:40:20;;;;;;;1.80;0.93;;;6.80;95.00;;;;;;2072931;28;20081;-91
2021/11/05 03:41:21;;;;;;;1.98;0.90;;;6.70;94.90;;;;;;2049084;28;20035;-91
2021/11/05 03:42:21;;;;;;;2.42;0.85;;;6.70;94.90;;;;;;2065757;28;20422;-91
2021/11/05 03:43:22;;;;;;;1.83;0.93;;;6.70;94.90;;;;;;2066943;28;20041;-92
2021/11/05 03:44:23;;;;;;;2.28;1.10;;;6.70;95.20;;;;;;2067748;28;20034;-90
2021/11/05 03:45:24;;;;;;;1.70;0.90;;;6.70;94.90;;;;;;2082492;28;20079;-90
2021/11/05 03:46:27;;;;;;;3.33;1.08;;;6.70;94.90;;;;;;2076847;28;20089;-92
2021/11/05 03:47:27;;;;;;;1.33;0.80;;;6.70;95.00;;;;;;2079404;28;20098;-92
2021/11/05 03:48:29;;;;;;;1.95;1.13;;;6.70;95.00;;;;;;2081155;28;20065;-91
2021/11/05 03:49:30;;;;;;;1.80;0.80;;;6.70;95.00;;;;;;2085564;28;20038;-91
2021/11/05 03:50:31;;;;;;;3.70;0.98;;;6.70;95.00;;;;;;2078669;28;20057;-91
2021/11/05 03:51:31;;;;;;;1.58;0.80;;;6.70;95.00;;;;;;2071348;28;20073;-91
2021/11/05 03:52:32;;;;;;;1.67;0.68;;;6.70;95.00;;;;;;2079074;28;20049;-90
2021/11/05 03:53:33;;;;;;;2.58;1.05;;;6.70;95.00;;;;;;2087897;28;20026;-91
2021/11/05 03:54:34;;;;;;;1.77;0.70;;;6.70;95.00;;;;;;2083767;28;20048;-85
2021/11/05 03:55:34;;;;;;;1.70;0.80;;;6.70;95.00;;;;;;2089103;28;20021;-86
2021/11/05 03:56:35;;;;;;;2.40;0.85;;;6.70;95.00;;;;;;2084266;28;20041;-92
2021/11/05 03:57:36;;;;;;;1.02;0.77;;;6.70;95.00;;;;;;2084073;28;20064;-91
2021/11/05 03:58:37;;;;;;;1.30;0.75;;;6.70;95.00;;;;;;2087379;28;20033;-91
2021/11/05 03:59:37;;;;;;;1.88;0.90;;;6.70;95.00;;;;;;2075187;28;20046;-91
2021/11/05 04:00:38;;;;;;;1.85;0.82;;;6.70;95.00;;;;;;2080299;28;20064;-90
2021/11/05 04:01:39;;;;;;;5.13;0.95;;;6.70;95.00;;;;;;2083241;28;20407;-91
2021/11/05 04:02:39;;;;;;;3.40;0.80;;;6.70;95.00;;;;;;2084099;28;20080;-90
2021/11/05 04:03:40;;;;;;;2.20;0.95;;;6.70;95.00;;;;;;2084374;28;20036;-90
2021/11/05 04:04:41;;;;;;;3.20;1.00;;;6.70;95.00;;;;;;2079747;28;20045;-90
2021/11/05 04:05:41;;;;;;;0.98;0.70;;;6.70;95.00;;;;;;2082796;28;20045;-90
2021/11/05 04:06:42;;;;;;;1.73;0.80;;;6.70;95.00;;;;;;2083580;28;20042;-90
2021/11/05 04:07:43;;;;;;;2.60;0.98;;;6.70;95.00;;;;;;2066673;28;20108;-89
2021/11/05 04:08:44;;;;;;;3.85;0.80;;;6.70;95.00;;;;;;2066288;28;20378;-90
2021/11/05 04:09:44;;;;;;;1.75;0.90;;;6.70;95.00;;;;;;2068658;28;20031;-90
2021/11/05 04:10:46;;;;;;;4.72;1.10;;;6.70;95.00;;;;;;2065157;28;20732;-92
2021/11/05 04:11:47;;;;;;;2.55;1.00;;;6.70;95.00;;;;;;2059061;28;20041;-90
2021/11/05 04:12:48;;;;;;;2.05;1.00;;;6.70;95.00;;;;;;2060001;28;20043;-91
2021/11/05 04:13:49;;;;;;;2.85;0.90;;;6.70;95.00;;;;;;2074400;28;20038;-90
2021/11/05 04:14:49;;;;;;;2.72;1.02;;;6.60;95.00;;;;;;2081387;28;20034;-90
2021/11/05 04:15:50;;;;;;;2.10;1.00;;;6.60;95.00;;;;;;2086729;28;20040;-90
2021/11/05 04:16:50;;;;;;;2.33;1.10;;;6.60;95.20;;;;;;2066913;28;20093;-90
2021/11/05 04:17:51;;;;;;;2.08;0.90;;;6.60;95.00;;;;;;2066842;28;20050;-91
2021/11/05 04:18:52;;;;;;;2.00;0.90;;;6.60;95.00;;;;;;2083133;28;20037;-90
2021/11/05 04:19:53;;;;;;;2.15;1.10;;;6.60;95.00;;;;;;2088639;28;20036;-90
2021/11/05 04:20:53;;;;;;;2.90;1.60;;;6.60;95.00;;;;;;2069826;28;20089;-91
2021/11/05 04:21:54;;;;;;;2.05;1.00;;;6.60;95.00;;;;;;2057440;28;20086;-90
2021/11/05 04:22:55;;;;;;;2.08;1.10;;;6.60;95.00;;;;;;2058621;28;20031;-91
2021/11/05 04:23:55;;;;;;;1.73;1.05;;;6.60;95.00;;;;;;2066456;28;20133;-91
2021/11/05 04:24:56;;;;;;;2.17;1.10;;;6.60;95.00;;;;;;2073358;28;20042;-91
2021/11/05 04:25:56;;;;;;;2.58;1.20;;;6.50;95.00;;;;;;2069119;28;20045;-91
2021/11/05 04:26:57;;;;;;;2.75;1.33;;;6.50;95.00;;;;;;2081310;28;20050;-90
2021/11/05 04:27:58;;;;;;;3.28;1.35;;;6.50;95.00;;;;;;2073094;28;20058;-91
2021/11/05 04:29:00;;;;;;;3.78;1.20;;;6.50;95.00;;;;;;2076703;28;20034;-90
2021/11/05 04:30:01;;;;;;;2.20;1.02;;;6.50;95.00;;;;;;2091547;28;20021;-90
2021/11/05 04:31:02;;;;;;;3.45;1.20;;;6.50;95.00;;;;;;2087702;28;20030;-91
2021/11/05 04:32:04;;;;;;;2.00;1.10;;;6.50;95.00;;;;;;2076262;28;20065;-91
2021/11/05 04:33:05;;;;;;;2.05;1.10;;;6.40;95.00;;;;;;2074598;28;20056;-90
2021/11/05 04:34:06;;;;;;;3.33;1.30;;;6.40;95.00;;;;;;2068316;28;20042;-90
2021/11/05 04:35:07;;;;;;;2.58;1.23;;;6.40;95.00;;;;;;2065337;28;20066;-90
2021/11/05 04:36:08;;;;;;;1.92;1.20;;;6.40;95.00;;;;;;2065421;28;20062;-90
2021/11/05 04:37:09;;;;;;;2.28;1.17;;;6.30;95.00;;;;;;2073871;28;20566;-91
2021/11/05 04:38:10;;;;;;;1.75;0.90;;;6.40;95.00;;;;;;2082464;28;20037;-90
2021/11/05 04:39:16;;;;;;;1.42;1.00;;;6.30;95.00;;;;;;2077667;28;20049;-91
2021/11/05 04:40:16;;;;;;;2.33;1.10;;;6.30;95.00;;;;;;2073843;28;20551;-91
2021/11/05 04:41:18;;;;;;;3.08;1.20;;;6.30;95.00;;;;;;2075779;28;20030;-90
2021/11/05 04:42:18;;;;;;;4.10;1.25;;;6.30;95.00;;;;;;2075432;28;20030;-91
2021/11/05 04:43:19;;;;;;;1.58;1.17;;;6.30;95.00;;;;;;2074051;28;20058;-90
2021/11/05 04:44:20;;;;;;;2.35;1.10;;;6.30;95.30;;;;;;2082730;28;20046;-92
2021/11/05 04:45:20;;;;;;;2.15;1.02;;;6.20;95.00;;;;;;2070005;28;20074;-92
2021/11/05 04:46:21;;;;;;;2.03;1.13;;;6.20;95.00;;;;;;2064768;28;20046;-91
2021/11/05 04:47:23;;;;;;;2.63;1.13;;;6.20;95.00;;;;;;2069139;28;20433;-92
2021/11/05 04:48:24;;;;;;;2.42;1.10;;;6.20;95.00;;;;;;2060354;28;20043;-91
2021/11/05 04:49:25;;;;;;;3.67;1.30;;;6.20;95.00;;;;;;2073929;28;20128;-92
2021/11/05 04:50:26;;;;;;;2.88;1.30;;;6.20;95.00;;;;;;2074579;28;20034;-91
2021/11/05 04:51:26;;;;;;;2.03;1.10;;;6.20;95.00;;;;;;2074619;28;20496;-91
2021/11/05 04:52:27;;;;;;;3.22;1.20;;;6.20;95.00;;;;;;2074591;28;20092;-91
2021/11/05 04:53:28;;;;;;;2.75;1.40;;;6.10;95.30;;;;;;2050395;28;20551;-91
2021/11/05 04:54:28;;;;;;;2.70;1.15;;;6.10;95.00;;;;;;2069339;28;20140;-92
2021/11/05 04:55:29;;;;;;;1.63;1.08;;;6.10;95.00;;;;;;2084502;28;20037;-91
2021/11/05 04:56:30;;;;;;;2.13;1.20;;;6.10;95.00;;;;;;2090536;28;20033;-93
2021/11/05 04:57:31;;;;;;;2.60;1.20;;;6.10;95.00;;;;;;2073787;28;20042;-91
2021/11/05 04:58:32;;;;;;;3.75;1.40;;;6.10;95.00;;;;;;2066935;28;20038;-92
2021/11/05 04:59:33;;;;;;;2.30;1.20;;;6.10;95.00;;;;;;2083110;28;20037;-92
2021/11/05 05:00:34;;;;;;;3.05;1.30;;;6.10;95.00;;;;;;2074196;28;20046;-91
2021/11/05 05:01:34;;;;;;;2.38;1.20;;;6.00;95.00;;;;;;2075439;28;20396;-91
2021/11/05 05:02:35;;;;;;;3.92;1.48;;;6.10;95.10;;;;;;2091425;28;20043;-90
2021/11/05 05:03:36;;;;;;;2.95;1.40;;;6.10;95.10;;;;;;2084690;28;20124;-91
2021/11/05 05:04:36;;;;;;;2.38;1.27;;;6.10;95.00;;;;;;2085116;28;20522;-91
2021/11/05 05:05:37;;;;;;;3.10;1.35;;;6.00;95.00;;;;;;2083119;28;20121;-90
2021/11/05 05:06:38;;;;;;;2.72;1.60;;;6.00;95.00;;;;;;2084098;28;20042;-90
2021/11/05 05:07:39;;;;;;;3.13;1.55;;;6.00;95.30;;;;;;2074660;28;20061;-91
2021/11/05 05:08:39;;;;;;;2.95;1.58;;;6.00;95.00;;;;;;2072740;28;20144;-90
2021/11/05 05:09:40;;;;;;;2.38;1.45;;;6.00;95.00;;;;;;2058306;28;20129;-91
2021/11/05 05:10:41;;;;;;;2.35;1.40;;;6.00;95.00;;;;;;2065525;28;20039;-91
2021/11/05 05:11:45;;;;;;;1.83;1.30;;;6.00;95.00;;;;;;2090639;28;20063;-91
2021/11/05 05:12:46;;;;;;;3.15;1.50;;;5.90;95.00;;;;;;2091114;28;20544;-91
2021/11/05 05:13:47;;;;;;;3.55;1.50;;;6.00;95.00;;;;;;2069350;28;20042;-91
2021/11/05 05:14:47;;;;;;;2.10;1.40;;;5.90;95.00;;;;;;2052622;28;20038;-90
2021/11/05 05:15:51;;;;;;;3.75;1.58;;;5.90;95.00;;;;;;2066157;28;20035;-91
2021/11/05 05:16:53;;;;;;;3.65;1.85;;;5.90;95.00;;;;;;2064555;28;20041;-89
2021/11/05 05:17:54;;;;;;;3.85;1.85;;;5.90;95.00;;;;;;2058767;28;20093;-90
2021/11/05 05:18:54;;;;;;;3.95;1.98;;;5.90;95.00;;;;;;2065994;28;20026;-91
2021/11/05 05:19:55;;;;;;;3.55;1.90;;;5.90;95.00;;;;;;2057212;28;20062;-92
2021/11/05 05:20:56;;;;;;;4.50;1.83;;;5.90;95.00;;;;;;2057681;28;20047;-91
2021/11/05 05:21:57;;;;;;;3.13;1.90;;;5.90;95.00;;;;;;2066263;28;20117;-91
2021/11/05 05:22:57;;;;;;;4.78;1.70;;;5.90;94.90;;;;;;2065622;28;20034;-90